Time;durP1;ratioP1;P1;durP2;ratioP2;P2;SDS_P1;SDS_P2;PMS_P1;PMS_P2;Temp;Humidity;BMP_temperature;BMP_pressure;BME280_temperature;BME280_humidity;BME280_pressure;Samples;Min_cycle;Max_cycle;Signal;HPM_P1;HPM_P2
2022/12/24 00:02:10;;;;;;;23.90;14.80;;;;;;;;;;5114779;28;20397;-73
2022/12/24 00:04:36;;;;;;;23.98;15.63;;;;;;;;;;5113847;27;20126;-74
2022/12/24 00:07:02;;;;;;;28.00;15.77;;;;;;;;;;5111140;28;20050;-73
2022/12/24 00:09:28;;;;;;;23.33;14.88;;;;;;;;;;5111668;28;20039;-74
2022/12/24 00:11:54;;;;;;;23.27;14.63;;;;;;;;;;5112673;28;20050;-74
2022/12/24 00:14:20;;;;;;;25.58;15.63;;;;;;;;;;5113106;28;20058;-74
2022/12/24 00:16:46;;;;;;;23.50;14.55;;;;;;;;;;5113245;28;20397;-74
2022/12/24 00:19:12;;;;;;;24.40;15.98;;;;;;;;;;5107812;28;20513;-74
2022/12/24 00:21:39;;;;;;;26.45;15.18;;;;;;;;;;5091581;28;20048;-74
2022/12/24 00:24:05;;;;;;;27.77;16.58;;;;;;;;;;5101315;28;20047;-74
2022/12/24 00:26:32;;;;;;;24.10;15.02;;;;;;;;;;5109473;28;20082;-74
2022/12/24 00:28:58;;;;;;;24.92;15.10;;;;;;;;;;5111270;28;20111;-74
2022/12/24 00:31:24;;;;;;;24.98;14.82;;;;;;;;;;5102955;28;20047;-74
2022/12/24 00:33:50;;;;;;;31.33;16.50;;;;;;;;;;5127685;27;20405;-72
2022/12/24 00:36:17;;;;;;;24.10;16.13;;;;;;;;;;5108332;27;20406;-72
2022/12/24 00:38:43;;;;;;;32.00;16.27;;;;;;;;;;5105618;28;20081;-72
2022/12/24 00:41:27;;;;;;;25.67;14.90;;;;;;;;;;5092955;28;20119;-72
2022/12/24 00:44:04;;;;;;;27.98;16.58;;;;;;;;;;5092358;28;20047;-72
2022/12/24 00:46:31;;;;;;;22.92;14.90;;;;;;;;;;5091414;27;20048;-71
2022/12/24 00:48:58;;;;;;;27.65;17.35;;;;;;;;;;5098210;28;20040;-73
2022/12/24 00:51:24;;;;;;;28.33;17.98;;;;;;;;;;5094867;28;20048;-74
2022/12/24 00:53:50;;;;;;;28.30;17.23;;;;;;;;;;5098693;28;20043;-74
2022/12/24 00:56:16;;;;;;;33.47;18.60;;;;;;;;;;5103161;28;20047;-74
2022/12/24 00:58:42;;;;;;;25.23;15.80;;;;;;;;;;5096857;28;20040;-73
2022/12/24 01:01:08;;;;;;;26.83;16.02;;;;;;;;;;5093243;28;20055;-74
2022/12/24 01:03:34;;;;;;;26.90;16.58;;;;;;;;;;5109549;27;20149;-74
2022/12/24 01:06:21;;;;;;;29.63;18.55;;;;;;;;;;5107889;28;20043;-74
2022/12/24 01:08:50;;;;;;;36.88;19.88;;;;;;;;;;5120369;27;20039;-74
2022/12/24 01:11:16;;;;;;;32.80;19.75;;;;;;;;;;5137406;27;20472;-74
2022/12/24 01:13:42;;;;;;;35.28;19.75;;;;;;;;;;5137166;27;20043;-74
2022/12/24 01:16:16;;;;;;;37.90;21.25;;;;;;;;;;5114570;28;20040;-74
2022/12/24 01:18:42;;;;;;;40.63;21.35;;;;;;;;;;5116570;28;20123;-74
2022/12/24 01:21:08;;;;;;;45.00;23.10;;;;;;;;;;5121924;27;20269;-74
2022/12/24 01:23:34;;;;;;;45.63;22.67;;;;;;;;;;5121900;27;20047;-74
2022/12/24 01:26:01;;;;;;;47.85;25.25;;;;;;;;;;5115220;28;20047;-72
2022/12/24 01:28:27;;;;;;;44.15;23.50;;;;;;;;;;5116249;28;20051;-72
2022/12/24 01:30:53;;;;;;;53.42;25.52;;;;;;;;;;5113926;28;20119;-72
2022/12/24 01:33:19;;;;;;;55.63;26.00;;;;;;;;;;5099777;27;20051;-73
2022/12/24 01:35:46;;;;;;;57.15;27.75;;;;;;;;;;5117498;27;20039;-74
2022/12/24 01:38:12;;;;;;;57.90;26.90;;;;;;;;;;5101021;27;20052;-73
2022/12/24 01:43:25;;;;;;;50.42;24.95;;;;;;;;;;5114499;28;20047;-74
2022/12/24 01:45:52;;;;;;;50.22;24.95;;;;;;;;;;5096368;28;20162;-74
2022/12/24 01:48:29;;;;;;;59.17;25.25;;;;;;;;;;5097105;28;20044;-74
2022/12/24 01:50:57;;;;;;;61.22;25.23;;;;;;;;;;5095069;28;20032;-72
2022/12/24 01:53:24;;;;;;;58.53;24.52;;;;;;;;;;5109504;28;20401;-71
2022/12/24 01:55:50;;;;;;;55.92;26.38;;;;;;;;;;5096394;28;20048;-71
2022/12/24 01:58:17;;;;;;;57.20;25.63;;;;;;;;;;5111695;28;20410;-71
2022/12/24 02:00:43;;;;;;;52.53;24.40;;;;;;;;;;5097607;28;20052;-72
2022/12/24 02:03:09;;;;;;;48.92;23.33;;;;;;;;;;5121432;27;20067;-72
2022/12/24 02:05:47;;;;;;;46.00;23.52;;;;;;;;;;5129414;27;20044;-72
2022/12/24 02:08:13;;;;;;;42.30;21.75;;;;;;;;;;5094420;28;20043;-71
2022/12/24 02:10:39;;;;;;;41.92;23.88;;;;;;;;;;5092854;28;20101;-72
2022/12/24 02:13:06;;;;;;;42.53;22.02;;;;;;;;;;5095916;28;20036;-72
2022/12/24 02:15:50;;;;;;;39.03;22.95;;;;;;;;;;5107994;28;20043;-72
2022/12/24 02:18:27;;;;;;;37.97;21.88;;;;;;;;;;5097300;28;20047;-72
2022/12/24 02:21:12;;;;;;;36.33;22.10;;;;;;;;;;5098197;28;20054;-72
2022/12/24 02:23:41;;;;;;;38.33;21.35;;;;;;;;;;5094354;28;20448;-72
2022/12/24 02:26:22;;;;;;;35.13;22.48;;;;;;;;;;5097143;28;20121;-72
2022/12/24 02:29:07;;;;;;;31.73;19.80;;;;;;;;;;5094828;28;20040;-72
2022/12/24 02:31:36;;;;;;;31.63;20.05;;;;;;;;;;5113742;27;20504;-72
2022/12/24 02:34:13;;;;;;;31.60;19.95;;;;;;;;;;5108599;27;20546;-72
2022/12/24 02:36:42;;;;;;;30.08;18.73;;;;;;;;;;5098994;28;20051;-72
2022/12/24 02:39:10;;;;;;;23.98;16.63;;;;;;;;;;5103778;28;20036;-72
2022/12/24 02:44:25;;;;;;;24.23;16.42;;;;;;;;;;5105393;28;20163;-72
2022/12/24 02:46:51;;;;;;;24.58;16.33;;;;;;;;;;5099793;28;20401;-72
2022/12/24 02:49:18;;;;;;;21.98;14.00;;;;;;;;;;5104780;28;20043;-72
2022/12/24 02:51:44;;;;;;;23.70;14.02;;;;;;;;;;5097174;28;20044;-72
2022/12/24 02:54:10;;;;;;;20.98;12.73;;;;;;;;;;5100334;28;20077;-72
2022/12/24 02:56:46;;;;;;;23.80;12.50;;;;;;;;;;5106410;28;20040;-73
2022/12/24 02:59:12;;;;;;;17.70;11.23;;;;;;;;;;5115008;27;20054;-73
2022/12/24 03:01:38;;;;;;;23.30;11.65;;;;;;;;;;5113145;27;20047;-72
2022/12/24 03:04:18;;;;;;;19.42;11.25;;;;;;;;;;5122724;27;20107;-73
2022/12/24 03:06:44;;;;;;;18.48;10.35;;;;;;;;;;5114362;28;20054;-73
2022/12/24 03:09:14;;;;;;;16.17;9.30;;;;;;;;;;5114161;28;20043;-73
2022/12/24 03:11:44;;;;;;;18.10;9.07;;;;;;;;;;5119362;27;20043;-73
2022/12/24 03:14:10;;;;;;;21.48;10.18;;;;;;;;;;5101958;28;20093;-73
2022/12/24 03:16:36;;;;;;;21.77;9.60;;;;;;;;;;5093864;28;20044;-73
2022/12/24 03:19:03;;;;;;;22.58;9.60;;;;;;;;;;5102977;28;20051;-73
2022/12/24 03:21:31;;;;;;;18.70;8.35;;;;;;;;;;5113697;28;20382;-73
2022/12/24 03:23:57;;;;;;;28.60;7.45;;;;;;;;;;5114007;28;20050;-73
2022/12/24 03:26:24;;;;;;;28.45;8.43;;;;;;;;;;5103727;28;20052;-73
2022/12/24 03:28:50;;;;;;;27.10;7.88;;;;;;;;;;5099127;28;20498;-73
2022/12/24 03:31:17;;;;;;;31.27;7.30;;;;;;;;;;5110573;27;20039;-73
2022/12/24 03:33:43;;;;;;;32.45;6.55;;;;;;;;;;5110061;27;20047;-73
2022/12/24 03:36:10;;;;;;;30.55;6.20;;;;;;;;;;5099611;28;20379;-73
2022/12/24 03:38:36;;;;;;;41.17;6.47;;;;;;;;;;5091832;28;20567;-73
2022/12/24 03:41:02;;;;;;;38.88;5.70;;;;;;;;;;5093433;28;20383;-73
2022/12/24 03:43:28;;;;;;;42.88;6.32;;;;;;;;;;5093023;28;20047;-73
2022/12/24 03:45:54;;;;;;;43.70;6.28;;;;;;;;;;5111271;28;20039;-73
2022/12/24 03:48:20;;;;;;;43.72;5.90;;;;;;;;;;5103944;28;20486;-73
2022/12/24 03:50:46;;;;;;;46.83;6.13;;;;;;;;;;5092126;28;20060;-73
2022/12/24 03:53:12;;;;;;;42.97;6.00;;;;;;;;;;5096142;28;20040;-73
2022/12/24 03:55:39;;;;;;;33.72;5.30;;;;;;;;;;5100170;28;20112;-73
2022/12/24 03:58:05;;;;;;;35.60;4.90;;;;;;;;;;5092226;28;20037;-73
2022/12/24 04:00:31;;;;;;;31.40;5.18;;;;;;;;;;5093150;28;20048;-73
2022/12/24 04:02:57;;;;;;;36.40;5.30;;;;;;;;;;5112063;28;20408;-73
2022/12/24 04:05:23;;;;;;;36.30;4.88;;;;;;;;;;5112166;28;20047;-73
2022/12/24 04:07:49;;;;;;;33.67;5.43;;;;;;;;;;5108552;28;20040;-73
2022/12/24 04:10:16;;;;;;;36.17;5.78;;;;;;;;;;5091150;28;20081;-73
2022/12/24 04:12:42;;;;;;;34.35;5.18;;;;;;;;;;5104155;28;20146;-73
2022/12/24 04:15:08;;;;;;;33.47;5.10;;;;;;;;;;5103205;28;20127;-73
2022/12/24 04:17:34;;;;;;;33.25;4.55;;;;;;;;;;5104413;28;20493;-73
2022/12/24 04:20:01;;;;;;;34.78;4.57;;;;;;;;;;5092105;28;20043;-73
2022/12/24 04:22:27;;;;;;;30.00;4.20;;;;;;;;;;5106717;28;20043;-73
2022/12/24 04:24:53;;;;;;;41.60;5.47;;;;;;;;;;5099859;28;20043;-73
2022/12/24 04:27:19;;;;;;;35.92;5.28;;;;;;;;;;5104368;28;20056;-72
2022/12/24 04:29:45;;;;;;;36.13;4.95;;;;;;;;;;5092062;28;20048;-73
2022/12/24 04:32:11;;;;;;;43.80;5.60;;;;;;;;;;5094741;28;20047;-72
2022/12/24 04:34:37;;;;;;;34.08;5.68;;;;;;;;;;5096506;28;20040;-73
2022/12/24 04:37:03;;;;;;;40.63;5.97;;;;;;;;;;5101656;28;20048;-73
2022/12/24 04:39:29;;;;;;;28.92;4.70;;;;;;;;;;5108937;28;20046;-73
2022/12/24 04:41:55;;;;;;;33.30;5.53;;;;;;;;;;5108595;28;20032;-73
2022/12/24 04:44:21;;;;;;;30.35;4.93;;;;;;;;;;5107902;28;20040;-72
2022/12/24 04:46:47;;;;;;;34.28;5.22;;;;;;;;;;5114999;28;20089;-72
2022/12/24 04:49:13;;;;;;;37.80;5.88;;;;;;;;;;5098775;28;20036;-72
2022/12/24 04:51:39;;;;;;;39.05;5.72;;;;;;;;;;5100557;28;20486;-72
2022/12/24 04:54:05;;;;;;;42.67;5.60;;;;;;;;;;5105830;28;20097;-72
2022/12/24 04:56:32;;;;;;;37.15;5.88;;;;;;;;;;5104515;27;20047;-73
2022/12/24 04:58:58;;;;;;;34.80;5.32;;;;;;;;;;5121838;27;20043;-73
2022/12/24 05:01:26;;;;;;;42.47;6.30;;;;;;;;;;5100125;28;20117;-72
2022/12/24 05:03:52;;;;;;;41.17;5.93;;;;;;;;;;5101683;28;21510;-72
2022/12/24 05:06:20;;;;;;;33.70;5.80;;;;;;;;;;5100801;28;20044;-73
2022/12/24 05:08:46;;;;;;;45.67;6.50;;;;;;;;;;5094926;28;20040;-73
2022/12/24 05:11:15;;;;;;;38.13;5.90;;;;;;;;;;5095117;28;20047;-72
2022/12/24 05:13:41;;;;;;;43.13;6.13;;;;;;;;;;5095344;28;20406;-73
2022/12/24 05:16:08;;;;;;;44.88;5.93;;;;;;;;;;5106380;28;20040;-73
2022/12/24 05:18:34;;;;;;;47.38;6.35;;;;;;;;;;5110285;28;20047;-73
2022/12/24 05:21:00;;;;;;;42.35;5.97;;;;;;;;;;5107541;28;20043;-73
2022/12/24 05:26:21;;;;;;;45.50;6.28;;;;;;;;;;5096072;28;20051;-72
2022/12/24 05:28:47;;;;;;;36.95;5.55;;;;;;;;;;5134647;27;20514;-73
2022/12/24 05:31:13;;;;;;;41.40;5.60;;;;;;;;;;5095744;28;20440;-73
2022/12/24 05:33:39;;;;;;;42.83;6.32;;;;;;;;;;5103989;27;20051;-73
2022/12/24 05:36:05;;;;;;;48.03;6.32;;;;;;;;;;5110087;27;20042;-73
2022/12/24 05:38:32;;;;;;;41.88;6.20;;;;;;;;;;5104256;27;20036;-73
2022/12/24 05:40:58;;;;;;;39.78;5.70;;;;;;;;;;5093956;28;20490;-73
2022/12/24 05:43:24;;;;;;;43.05;6.72;;;;;;;;;;5102354;28;20406;-73
2022/12/24 05:45:50;;;;;;;44.03;6.22;;;;;;;;;;5110290;28;20036;-73
2022/12/24 05:48:16;;;;;;;38.03;6.45;;;;;;;;;;5094537;28;20059;-73
2022/12/24 05:50:42;;;;;;;52.42;6.43;;;;;;;;;;5094165;28;20490;-73
2022/12/24 05:53:08;;;;;;;38.78;6.22;;;;;;;;;;5098116;28;20054;-73
2022/12/24 05:55:34;;;;;;;46.75;6.43;;;;;;;;;;5095235;28;20048;-73
2022/12/24 05:58:00;;;;;;;51.53;7.10;;;;;;;;;;5109541;27;20071;-73
2022/12/24 06:00:26;;;;;;;49.78;6.13;;;;;;;;;;5093983;28;20052;-73
2022/12/24 06:02:52;;;;;;;39.10;6.10;;;;;;;;;;5104614;28;20039;-73
2022/12/24 06:05:18;;;;;;;53.42;7.13;;;;;;;;;;5111239;28;20047;-73
2022/12/24 06:07:44;;;;;;;47.60;7.20;;;;;;;;;;5108049;28;20107;-73
2022/12/24 06:10:10;;;;;;;41.47;6.32;;;;;;;;;;5103159;28;20043;-73
2022/12/24 06:12:36;;;;;;;39.75;6.78;;;;;;;;;;5094104;28;20036;-73
2022/12/24 06:15:02;;;;;;;42.42;6.93;;;;;;;;;;5103734;27;20472;-73
2022/12/24 06:17:29;;;;;;;59.30;7.70;;;;;;;;;;5109428;28;20405;-73
2022/12/24 06:19:55;;;;;;;46.10;6.65;;;;;;;;;;5093202;28;20043;-73
2022/12/24 06:22:21;;;;;;;49.45;7.20;;;;;;;;;;5094516;28;20048;-73
2022/12/24 06:24:47;;;;;;;41.42;7.18;;;;;;;;;;5094710;28;20174;-73
2022/12/24 06:27:13;;;;;;;43.78;6.68;;;;;;;;;;5108307;28;20052;-73
2022/12/24 06:29:39;;;;;;;45.88;7.43;;;;;;;;;;5100771;28;20055;-73
2022/12/24 06:32:05;;;;;;;43.20;7.22;;;;;;;;;;5104605;28;20039;-73
2022/12/24 06:34:31;;;;;;;42.92;7.07;;;;;;;;;;5108059;28;20043;-73
2022/12/24 06:36:57;;;;;;;51.50;7.63;;;;;;;;;;5099266;27;20040;-73
2022/12/24 06:39:23;;;;;;;55.03;8.07;;;;;;;;;;5096328;28;20047;-73
2022/12/24 06:41:49;;;;;;;49.20;8.65;;;;;;;;;;5103868;28;20036;-72
2022/12/24 06:44:15;;;;;;;49.95;9.15;;;;;;;;;;5100176;28;20058;-73
2022/12/24 06:46:41;;;;;;;53.40;9.18;;;;;;;;;;5117069;27;20035;-73
2022/12/24 06:49:07;;;;;;;53.45;8.93;;;;;;;;;;5110682;28;20043;-73
2022/12/24 06:51:33;;;;;;;49.45;9.02;;;;;;;;;;5099836;28;20044;-73
2022/12/24 06:53:59;;;;;;;53.63;9.27;;;;;;;;;;5093005;28;20040;-73
2022/12/24 06:56:25;;;;;;;59.47;9.43;;;;;;;;;;5103903;28;20520;-73
2022/12/24 06:58:51;;;;;;;55.00;10.57;;;;;;;;;;5093619;28;20556;-72
2022/12/24 07:01:18;;;;;;;59.45;10.18;;;;;;;;;;5092615;28;20048;-73
2022/12/24 07:03:45;;;;;;;51.53;10.02;;;;;;;;;;5096427;28;20052;-73
2022/12/24 07:06:15;;;;;;;55.40;10.52;;;;;;;;;;5109873;27;20408;-73
2022/12/24 07:08:41;;;;;;;58.92;9.80;;;;;;;;;;5111885;28;20173;-73
2022/12/24 07:11:07;;;;;;;54.25;9.18;;;;;;;;;;5098311;28;20036;-73
2022/12/24 07:13:33;;;;;;;51.10;9.60;;;;;;;;;;5093477;28;20055;-73
2022/12/24 07:16:00;;;;;;;56.47;11.45;;;;;;;;;;5109703;27;20497;-73
2022/12/24 07:18:26;;;;;;;57.17;10.95;;;;;;;;;;5096734;28;20040;-73
2022/12/24 07:20:52;;;;;;;58.25;11.80;;;;;;;;;;5102301;28;20052;-73
2022/12/24 07:23:18;;;;;;;57.75;10.95;;;;;;;;;;5092777;28;20494;-72
2022/12/24 07:25:44;;;;;;;56.83;11.98;;;;;;;;;;5097635;28;20044;-73
2022/12/24 07:28:10;;;;;;;51.47;10.13;;;;;;;;;;5096286;28;20043;-73
2022/12/24 07:30:36;;;;;;;57.22;10.68;;;;;;;;;;5101339;28;20405;-73
2022/12/24 07:33:03;;;;;;;61.17;9.93;;;;;;;;;;5089736;28;20055;-73
2022/12/24 07:35:29;;;;;;;47.30;9.60;;;;;;;;;;5100619;28;20408;-73
2022/12/24 07:37:55;;;;;;;48.90;9.38;;;;;;;;;;5103323;28;20040;-73
2022/12/24 07:40:21;;;;;;;49.83;8.93;;;;;;;;;;5107881;28;20039;-73
2022/12/24 07:42:47;;;;;;;46.83;10.65;;;;;;;;;;5095414;28;20387;-73
2022/12/24 07:45:13;;;;;;;52.92;9.52;;;;;;;;;;5114821;27;20062;-72
2022/12/24 07:47:39;;;;;;;50.15;9.73;;;;;;;;;;5097311;28;20047;-73
2022/12/24 07:50:05;;;;;;;50.15;10.88;;;;;;;;;;5096485;28;20040;-73
2022/12/24 07:52:32;;;;;;;49.53;10.32;;;;;;;;;;5101019;28;20052;-73
2022/12/24 07:54:58;;;;;;;55.30;11.98;;;;;;;;;;5107367;28;20417;-73
2022/12/24 07:57:24;;;;;;;41.78;11.10;;;;;;;;;;5101701;28;20401;-73
2022/12/24 07:59:50;;;;;;;52.28;11.00;;;;;;;;;;5097825;28;20040;-73
2022/12/24 08:02:16;;;;;;;50.45;11.23;;;;;;;;;;5106283;28;20056;-73
2022/12/24 08:04:42;;;;;;;53.22;13.10;;;;;;;;;;5103796;28;20059;-73
2022/12/24 08:07:08;;;;;;;48.20;14.05;;;;;;;;;;5100948;28;20048;-73
2022/12/24 08:09:35;;;;;;;53.65;15.18;;;;;;;;;;5112843;28;20374;-73
2022/12/24 08:12:01;;;;;;;55.38;13.57;;;;;;;;;;5112668;28;20408;-73
2022/12/24 08:14:31;;;;;;;43.50;11.63;;;;;;;;;;5111675;28;20489;-73
2022/12/24 08:16:57;;;;;;;53.72;11.48;;;;;;;;;;5111435;28;20043;-73
2022/12/24 08:19:24;;;;;;;52.67;10.55;;;;;;;;;;5114462;28;20051;-73
2022/12/24 08:21:50;;;;;;;45.67;11.23;;;;;;;;;;5116267;28;20489;-73
2022/12/24 08:24:16;;;;;;;47.92;13.27;;;;;;;;;;5116646;28;20504;-72
2022/12/24 08:26:42;;;;;;;49.58;13.02;;;;;;;;;;5116746;28;20471;-72
2022/12/24 08:29:08;;;;;;;48.58;12.00;;;;;;;;;;5117048;28;20103;-72
2022/12/24 08:31:35;;;;;;;47.95;11.43;;;;;;;;;;5116158;28;20109;-72
2022/12/24 08:34:05;;;;;;;53.05;11.38;;;;;;;;;;5105303;28;20040;-72
2022/12/24 08:36:31;;;;;;;50.38;11.38;;;;;;;;;;5123564;27;20055;-72
2022/12/24 08:38:57;;;;;;;49.00;10.52;;;;;;;;;;5101417;27;20120;-72
2022/12/24 08:41:23;;;;;;;43.80;11.25;;;;;;;;;;5097396;28;20043;-72
2022/12/24 08:43:49;;;;;;;49.78;11.18;;;;;;;;;;5116159;28;20457;-72
2022/12/24 08:46:15;;;;;;;56.53;10.43;;;;;;;;;;5115371;28;20447;-72
2022/12/24 08:48:41;;;;;;;53.45;12.25;;;;;;;;;;5116081;28;20058;-72
2022/12/24 08:51:08;;;;;;;49.80;11.45;;;;;;;;;;5113987;28;20055;-72
2022/12/24 08:53:35;;;;;;;51.33;11.80;;;;;;;;;;5115981;28;20040;-72
2022/12/24 08:56:04;;;;;;;44.35;9.35;;;;;;;;;;5115953;28;20529;-72
2022/12/24 08:58:31;;;;;;;46.92;8.32;;;;;;;;;;5114937;28;20044;-72
2022/12/24 09:00:57;;;;;;;47.33;8.63;;;;;;;;;;5115970;28;20054;-72
2022/12/24 09:03:23;;;;;;;52.80;8.57;;;;;;;;;;5116056;28;20057;-73
2022/12/24 09:05:49;;;;;;;46.05;10.10;;;;;;;;;;5116950;27;20090;-72
2022/12/24 09:08:15;;;;;;;61.20;9.60;;;;;;;;;;5115693;27;20096;-73
2022/12/24 09:10:41;;;;;;;62.13;11.75;;;;;;;;;;5114861;27;20083;-73
2022/12/24 09:13:07;;;;;;;60.25;12.98;;;;;;;;;;5115436;28;20051;-73
2022/12/24 09:15:33;;;;;;;49.05;10.75;;;;;;;;;;5109598;27;20048;-73
2022/12/24 09:18:00;;;;;;;50.90;11.15;;;;;;;;;;5095339;28;20044;-73
2022/12/24 09:20:26;;;;;;;50.28;12.68;;;;;;;;;;5094130;28;20402;-73
2022/12/24 09:22:52;;;;;;;50.22;9.27;;;;;;;;;;5106691;27;20066;-73
2022/12/24 09:25:18;;;;;;;48.83;9.20;;;;;;;;;;5115485;27;20051;-73
2022/12/24 09:27:44;;;;;;;47.33;9.75;;;;;;;;;;5113989;27;20040;-73
2022/12/24 09:30:11;;;;;;;50.67;10.45;;;;;;;;;;5104527;28;20109;-72
2022/12/24 09:32:37;;;;;;;48.40;10.40;;;;;;;;;;5108862;28;20050;-73
2022/12/24 09:35:03;;;;;;;49.17;8.70;;;;;;;;;;5114902;28;20043;-73
2022/12/24 09:37:29;;;;;;;45.83;8.65;;;;;;;;;;5118339;27;20404;-73
2022/12/24 09:39:55;;;;;;;53.85;10.07;;;;;;;;;;5118181;27;20047;-73
2022/12/24 09:42:42;;;;;;;48.72;10.00;;;;;;;;;;5116679;27;20036;-73
2022/12/24 09:45:17;;;;;;;47.05;9.05;;;;;;;;;;5113169;28;20039;-73
2022/12/24 09:47:47;;;;;;;56.42;9.02;;;;;;;;;;5113188;28;20047;-73
2022/12/24 09:50:26;;;;;;;46.17;8.73;;;;;;;;;;5116216;27;20047;-73
2022/12/24 09:52:53;;;;;;;44.40;8.85;;;;;;;;;;5135555;27;20051;-72
2022/12/24 09:55:22;;;;;;;51.72;9.48;;;;;;;;;;5135745;27;20043;-73
2022/12/24 09:57:50;;;;;;;45.25;8.90;;;;;;;;;;5118512;27;20048;-72
2022/12/24 10:00:20;;;;;;;43.97;7.78;;;;;;;;;;5112288;28;20047;-73
2022/12/24 10:02:46;;;;;;;39.50;8.57;;;;;;;;;;5114157;28;20073;-73
2022/12/24 10:05:17;;;;;;;41.40;8.10;;;;;;;;;;5114242;28;20039;-73
2022/12/24 10:07:48;;;;;;;42.45;8.30;;;;;;;;;;5113532;28;20092;-73
2022/12/24 10:10:20;;;;;;;35.40;7.97;;;;;;;;;;5113662;27;20047;-73
2022/12/24 10:13:04;;;;;;;48.75;8.13;;;;;;;;;;5110120;27;20039;-72
2022/12/24 10:16:06;;;;;;;38.78;7.82;;;;;;;;;;5112407;28;20047;-73
2022/12/24 10:18:43;;;;;;;30.13;6.18;;;;;;;;;;5040897;28;20040;-73
2022/12/24 10:21:16;;;;;;;30.58;6.95;;;;;;;;;;5041407;28;20518;-73
2022/12/24 10:23:42;;;;;;;31.02;8.02;;;;;;;;;;5050498;28;20100;-73
2022/12/24 10:26:10;;;;;;;28.92;6.50;;;;;;;;;;5042781;28;20057;-73
2022/12/24 10:28:46;;;;;;;33.78;6.15;;;;;;;;;;5033756;28;20534;-73
2022/12/24 10:31:13;;;;;;;31.55;6.05;;;;;;;;;;5051794;28;20123;-73
2022/12/24 10:33:43;;;;;;;29.15;5.90;;;;;;;;;;5049793;28;20543;-73
2022/12/24 10:36:16;;;;;;;35.13;6.78;;;;;;;;;;5045613;28;20080;-73
2022/12/24 10:38:42;;;;;;;28.52;5.53;;;;;;;;;;5061544;28;20036;-73
2022/12/24 10:41:09;;;;;;;31.45;5.97;;;;;;;;;;5048733;28;20046;-73
2022/12/24 10:43:35;;;;;;;26.95;5.28;;;;;;;;;;5031274;28;20141;-73
2022/12/24 10:46:05;;;;;;;31.67;5.65;;;;;;;;;;5031164;28;20057;-73
2022/12/24 10:48:37;;;;;;;34.35;6.18;;;;;;;;;;5044703;28;20045;-73
2022/12/24 10:51:06;;;;;;;34.45;6.10;;;;;;;;;;5054668;28;20032;-73
2022/12/24 10:53:38;;;;;;;29.23;5.68;;;;;;;;;;5114179;27;20059;-73
2022/12/24 10:56:06;;;;;;;36.17;6.45;;;;;;;;;;5113893;28;20043;-73
2022/12/24 10:58:32;;;;;;;30.50;5.90;;;;;;;;;;5113794;28;20048;-73
2022/12/24 11:00:58;;;;;;;32.97;5.97;;;;;;;;;;5113572;28;20056;-73
2022/12/24 11:03:29;;;;;;;28.75;5.55;;;;;;;;;;5112937;28;20134;-72
2022/12/24 11:06:00;;;;;;;27.63;5.72;;;;;;;;;;5113597;28;20051;-73
2022/12/24 11:08:26;;;;;;;33.85;6.35;;;;;;;;;;5129024;27;20055;-73
2022/12/24 11:10:59;;;;;;;33.97;5.75;;;;;;;;;;5115410;27;20481;-73
2022/12/24 11:13:27;;;;;;;32.22;6.57;;;;;;;;;;5111257;28;20051;-73
2022/12/24 11:16:20;;;;;;;34.53;5.63;;;;;;;;;;5110255;27;20040;-73
2022/12/24 11:18:56;;;;;;;35.65;5.55;;;;;;;;;;5083349;28;20060;-73
2022/12/24 11:21:27;;;;;;;38.60;6.38;;;;;;;;;;5098446;28;20388;-71
2022/12/24 11:23:55;;;;;;;41.72;7.53;;;;;;;;;;5106413;27;20055;-74
2022/12/24 11:26:22;;;;;;;38.47;7.15;;;;;;;;;;5118197;27;20035;-77
2022/12/24 11:29:04;;;;;;;38.40;6.20;;;;;;;;;;5110288;28;20075;-75
2022/12/24 11:31:32;;;;;;;34.10;5.82;;;;;;;;;;5126081;27;20066;-76
2022/12/24 11:33:58;;;;;;;39.67;6.68;;;;;;;;;;5124359;27;20035;-73
2022/12/24 11:36:26;;;;;;;32.42;5.53;;;;;;;;;;5113141;28;20050;-73
2022/12/24 11:38:56;;;;;;;36.83;6.25;;;;;;;;;;5109216;28;20371;-73
2022/12/24 11:41:23;;;;;;;44.00;8.65;;;;;;;;;;5112522;28;20051;-73
2022/12/24 11:43:51;;;;;;;40.63;7.82;;;;;;;;;;5111789;28;20516;-73
2022/12/24 11:46:22;;;;;;;41.83;8.43;;;;;;;;;;5112447;28;20470;-72
2022/12/24 11:48:48;;;;;;;40.88;7.35;;;;;;;;;;5112433;28;20043;-73
2022/12/24 11:51:24;;;;;;;36.40;8.10;;;;;;;;;;5111663;28;20118;-73
2022/12/24 11:53:55;;;;;;;39.33;6.10;;;;;;;;;;5101819;28;20131;-73
2022/12/24 11:56:33;;;;;;;37.35;6.75;;;;;;;;;;5112863;28;20059;-73
2022/12/24 11:59:02;;;;;;;34.60;5.80;;;;;;;;;;5105130;28;20051;-72
2022/12/24 12:01:35;;;;;;;36.95;6.93;;;;;;;;;;5101561;28;20411;-73
2022/12/24 12:04:05;;;;;;;31.83;6.40;;;;;;;;;;5092653;28;20490;-73
2022/12/24 12:06:35;;;;;;;42.53;7.07;;;;;;;;;;5121553;28;20456;-72
2022/12/24 12:09:05;;;;;;;35.00;5.83;;;;;;;;;;5104461;28;20050;-73
2022/12/24 12:11:32;;;;;;;31.63;6.43;;;;;;;;;;5121603;28;20057;-73
2022/12/24 12:13:59;;;;;;;33.38;6.13;;;;;;;;;;5125074;27;20058;-73
2022/12/24 12:16:29;;;;;;;43.53;5.93;;;;;;;;;;5112835;28;20039;-73
2022/12/24 12:18:59;;;;;;;30.38;5.70;;;;;;;;;;5112626;28;20059;-73
2022/12/24 12:21:30;;;;;;;29.08;5.78;;;;;;;;;;5112845;28;20055;-73
2022/12/24 12:23:59;;;;;;;31.10;5.30;;;;;;;;;;5110355;28;20052;-73
2022/12/24 12:26:30;;;;;;;35.35;5.57;;;;;;;;;;5112381;28;20481;-73
2022/12/24 12:29:21;;;;;;;32.23;6.63;;;;;;;;;;5111645;28;20059;-73
2022/12/24 12:31:49;;;;;;;34.05;6.82;;;;;;;;;;5099585;28;20097;-73
2022/12/24 12:34:15;;;;;;;29.65;5.13;;;;;;;;;;5099049;28;20500;-72
2022/12/24 12:36:52;;;;;;;31.73;6.20;;;;;;;;;;5130898;27;20054;-72
2022/12/24 12:39:18;;;;;;;33.05;5.47;;;;;;;;;;5132633;27;20442;-73
2022/12/24 12:41:53;;;;;;;33.25;5.88;;;;;;;;;;5131776;27;20070;-73
2022/12/24 12:44:25;;;;;;;30.55;5.70;;;;;;;;;;5120185;28;20099;-73
2022/12/24 12:47:05;;;;;;;33.72;6.75;;;;;;;;;;5132796;27;20043;-73
2022/12/24 12:49:50;;;;;;;35.83;6.93;;;;;;;;;;5124761;27;20036;-73
2022/12/24 12:52:40;;;;;;;30.33;6.45;;;;;;;;;;5115425;28;20051;-73
2022/12/24 12:55:21;;;;;;;32.00;6.40;;;;;;;;;;5100133;28;20059;-72
2022/12/24 12:57:48;;;;;;;25.05;5.00;;;;;;;;;;5108025;28;20047;-73
2022/12/24 13:00:18;;;;;;;31.17;5.68;;;;;;;;;;5105876;28;20554;-73
2022/12/24 13:02:44;;;;;;;30.67;4.97;;;;;;;;;;5110933;28;20061;-72
2022/12/24 13:05:19;;;;;;;32.00;5.18;;;;;;;;;;5105243;27;20405;-72
2022/12/24 13:07:54;;;;;;;32.28;5.90;;;;;;;;;;5110792;28;20049;-72
2022/12/24 13:10:32;;;;;;;31.73;5.63;;;;;;;;;;5109225;27;20046;-72
2022/12/24 13:13:01;;;;;;;29.33;5.25;;;;;;;;;;5107323;27;20447;-72
2022/12/24 13:15:27;;;;;;;31.85;4.88;;;;;;;;;;5112556;27;20039;-73
2022/12/24 13:17:54;;;;;;;27.85;4.72;;;;;;;;;;5111088;27;20044;-72
2022/12/24 13:20:31;;;;;;;30.35;5.82;;;;;;;;;;5103180;27;20036;-73
2022/12/24 13:22:58;;;;;;;25.02;4.18;;;;;;;;;;5114234;27;20040;-73
2022/12/24 13:25:45;;;;;;;29.55;4.80;;;;;;;;;;5102918;27;20440;-73
2022/12/24 13:28:20;;;;;;;30.75;5.00;;;;;;;;;;5093928;28;20370;-73
2022/12/24 13:30:47;;;;;;;31.05;4.75;;;;;;;;;;5102309;27;20039;-73
2022/12/24 13:33:33;;;;;;;34.03;5.32;;;;;;;;;;5113760;28;20051;-72
2022/12/24 13:36:16;;;;;;;32.97;4.97;;;;;;;;;;5125969;27;20043;-73
2022/12/24 13:38:43;;;;;;;28.63;4.63;;;;;;;;;;5116259;27;20130;-72
2022/12/24 13:41:28;;;;;;;26.85;4.57;;;;;;;;;;5114871;27;20118;-72
2022/12/24 13:44:11;;;;;;;29.60;3.97;;;;;;;;;;5114741;27;20043;-73
2022/12/24 13:46:51;;;;;;;31.25;5.22;;;;;;;;;;5122446;27;20103;-72
2022/12/24 13:49:21;;;;;;;24.23;3.70;;;;;;;;;;5111925;28;20875;-72
2022/12/24 13:51:49;;;;;;;32.13;5.07;;;;;;;;;;5109340;27;20095;-72
2022/12/24 13:54:17;;;;;;;30.45;4.43;;;;;;;;;;5117762;27;20051;-72
2022/12/24 13:56:43;;;;;;;21.75;4.10;;;;;;;;;;5112558;27;20084;-72
2022/12/24 13:59:28;;;;;;;26.27;4.38;;;;;;;;;;5097748;27;20128;-72
2022/12/24 14:01:54;;;;;;;27.17;4.30;;;;;;;;;;5098567;28;20047;-72
2022/12/24 14:04:32;;;;;;;21.23;3.67;;;;;;;;;;5112926;27;20066;-72
2022/12/24 14:06:59;;;;;;;25.33;4.13;;;;;;;;;;5112739;27;20047;-72
2022/12/24 14:09:25;;;;;;;24.45;5.85;;;;;;;;;;5113725;28;20065;-72
2022/12/24 14:12:14;;;;;;;25.10;5.70;;;;;;;;;;5114826;28;20101;-72
2022/12/24 14:14:41;;;;;;;21.02;4.90;;;;;;;;;;5110492;28;20072;-72
2022/12/24 14:17:20;;;;;;;31.38;4.82;;;;;;;;;;5113013;28;20047;-72
2022/12/24 14:19:49;;;;;;;26.60;4.25;;;;;;;;;;5113978;28;20470;-72
2022/12/24 14:22:38;;;;;;;23.73;3.90;;;;;;;;;;5112399;28;20047;-72
2022/12/24 14:25:16;;;;;;;18.90;4.05;;;;;;;;;;5086346;28;20060;-72
2022/12/24 14:27:42;;;;;;;23.40;4.05;;;;;;;;;;5097006;28;20052;-72
2022/12/24 14:30:17;;;;;;;22.02;4.18;;;;;;;;;;5098551;27;20040;-72
2022/12/24 14:32:44;;;;;;;23.77;4.80;;;;;;;;;;5108014;27;20496;-72
2022/12/24 14:35:12;;;;;;;24.08;4.45;;;;;;;;;;5115413;27;20130;-72
2022/12/24 14:37:39;;;;;;;25.27;3.75;;;;;;;;;;5116940;27;20047;-72
2022/12/24 14:40:06;;;;;;;20.30;3.75;;;;;;;;;;5114239;28;20108;-72
2022/12/24 14:42:32;;;;;;;19.55;4.32;;;;;;;;;;5114043;28;20086;-72
2022/12/24 14:45:01;;;;;;;24.23;3.83;;;;;;;;;;5112928;27;20055;-72